Time;durP1;ratioP1;P1;durP2;ratioP2;P2;SDS_P1;SDS_P2;PMS_P1;PMS_P2;Temp;Humidity;BMP_temperature;BMP_pressure;BME280_temperature;BME280_humidity;BME280_pressure;Samples;Min_cycle;Max_cycle;Signal;HPM_P1;HPM_P2
2022/11/12 00:02:39;;;;;;;43.90;25.38;;;;;;;16.96;66.82;102551.09;4945578;28;119816;-70
2022/11/12 00:05:31;;;;;;;46.05;25.75;;;;;;;16.98;66.81;102554.19;4945563;28;120167;-69
2022/11/12 00:08:16;;;;;;;48.28;26.77;;;;;;;17.01;66.62;102558.84;4943950;28;120200;-71
2022/11/12 00:11:00;;;;;;;45.05;25.38;;;;;;;17.02;66.67;102548.53;4933430;28;120583;-71
2022/11/12 00:13:44;;;;;;;49.28;27.10;;;;;;;17.04;66.37;102540.56;4936417;28;119642;-71
2022/11/12 00:16:29;;;;;;;46.67;26.27;;;;;;;17.05;66.88;102540.09;4938976;28;120401;-71
2022/11/12 00:19:13;;;;;;;53.53;27.30;;;;;;;17.08;66.45;102552.28;4943058;28;119782;-71
2022/11/12 00:21:57;;;;;;;50.58;27.58;;;;;;;17.07;66.69;102557.06;4946734;28;120611;-71
2022/11/12 00:24:41;;;;;;;50.97;27.70;;;;;;;17.08;66.69;102552.28;4941961;28;120208;-70
2022/11/12 00:27:25;;;;;;;51.35;27.75;;;;;;;17.10;66.26;102547.84;4928469;28;120002;-70
2022/11/12 00:30:11;;;;;;;51.37;27.27;;;;;;;17.08;66.45;102553.06;4936345;28;119930;-71
2022/11/12 00:32:55;;;;;;;49.60;27.85;;;;;;;17.09;66.89;102551.06;4943200;28;119589;-70
2022/11/12 00:35:39;;;;;;;53.50;28.55;;;;;;;17.10;66.33;102561.72;4944878;28;119676;-70
2022/11/12 00:38:24;;;;;;;55.22;29.27;;;;;;;17.09;66.52;102556.63;4942483;28;121114;-71
2022/11/12 00:41:08;;;;;;;57.30;29.80;;;;;;;17.11;66.42;102563.25;4942637;28;120147;-71
2022/11/12 00:43:52;;;;;;;49.13;28.00;;;;;;;17.12;67.02;102552.94;4948488;28;119814;-70
2022/11/12 00:46:37;;;;;;;55.28;29.42;;;;;;;17.12;66.40;102559.25;4943215;28;120312;-70
2022/11/12 00:49:21;;;;;;;52.63;29.20;;;;;;;17.16;66.82;102559.91;4944783;28;120394;-70
2022/11/12 00:52:06;;;;;;;60.70;30.98;;;;;;;17.16;66.18;102548.03;4943340;28;119529;-70
2022/11/12 00:54:50;;;;;;;53.50;29.75;;;;;;;17.15;66.55;102560.34;4938204;28;120131;-70
2022/11/12 00:57:34;;;;;;;56.00;30.85;;;;;;;17.16;66.46;102565.44;4941735;28;120852;-70
2022/11/12 01:00:20;;;;;;;57.13;31.05;;;;;;;17.15;66.34;102552.03;4928146;28;120208;-70
2022/11/12 01:03:07;;;;;;;50.92;29.25;;;;;;;17.19;66.45;102553.44;4933770;28;119872;-71
2022/11/12 01:05:52;;;;;;;54.85;30.63;;;;;;;17.18;66.19;102545.56;4944376;28;120201;-70
2022/11/12 01:08:38;;;;;;;54.77;30.80;;;;;;;17.17;66.22;102550.34;4946711;28;120894;-70
2022/11/12 01:11:28;;;;;;;53.53;29.20;;;;;;;17.18;66.51;102540.03;4943749;28;119945;-71
2022/11/12 01:14:33;;;;;;;57.80;30.07;;;;;;;17.13;66.57;102533.06;4928448;28;120100;-71
2022/11/12 01:17:20;;;;;;;57.28;30.15;;;;;;;17.17;66.52;102542.03;4944920;28;120288;-71
2022/11/12 01:20:05;;;;;;;59.50;31.50;;;;;;;17.16;66.68;102545.25;4949170;28;119934;-71
2022/11/12 01:22:49;;;;;;;51.67;29.73;;;;;;;17.16;66.58;102537.72;4944406;28;119752;-71
2022/11/12 01:25:37;;;;;;;55.40;30.33;;;;;;;17.17;66.75;102535.72;4941629;28;120019;-71
2022/11/12 01:28:21;;;;;;;51.60;29.00;;;;;;;17.17;66.38;102539.25;4943383;28;120059;-71
2022/11/12 01:31:28;;;;;;;53.35;29.48;;;;;;;17.17;66.51;102546.81;4942982;28;120328;-71
2022/11/12 01:34:12;;;;;;;57.28;29.58;;;;;;;17.14;66.88;102534.63;4949153;28;119407;-71
2022/11/12 01:36:56;;;;;;;55.10;29.92;;;;;;;17.15;66.81;102536.16;4942609;28;120760;-71
2022/11/12 01:39:40;;;;;;;54.35;29.15;;;;;;;17.13;66.91;102544.16;4944976;28;119853;-71
2022/11/12 01:42:30;;;;;;;55.55;28.77;;;;;;;17.16;66.83;102543.25;4942260;28;120878;-71
2022/11/12 01:45:15;;;;;;;50.72;28.48;;;;;;;17.15;66.90;102552.03;4941960;28;120403;-69
2022/11/12 01:47:59;;;;;;;53.97;29.08;;;;;;;17.15;66.64;102550.03;4944662;28;119992;-71
2022/11/12 01:50:44;;;;;;;55.85;30.00;;;;;;;17.21;66.97;102546.66;4935087;28;119848;-70
2022/11/12 01:53:34;;;;;;;53.10;29.17;;;;;;;17.21;67.10;102543.91;4928083;28;120251;-71
2022/11/12 01:56:22;;;;;;;52.33;28.17;;;;;;;17.19;66.92;102542.34;4928337;28;120059;-71
2022/11/12 01:59:13;;;;;;;55.78;29.05;;;;;;;17.19;67.08;102556.22;4940301;28;120106;-71
2022/11/12 02:01:58;;;;;;;50.55;28.38;;;;;;;17.21;67.09;102560.53;4928457;28;119580;-71
2022/11/12 02:04:43;;;;;;;52.05;28.95;;;;;;;17.23;66.83;102558.09;4944259;28;119387;-71
2022/11/12 02:07:30;;;;;;;54.35;27.70;;;;;;;17.24;67.11;102560.41;4943090;28;120026;-70
2022/11/12 02:10:15;;;;;;;49.13;27.00;;;;;;;17.25;67.34;102556.41;4930472;28;119750;-71
2022/11/12 02:16:06;;;;;;;44.42;25.05;;;;;;;17.33;67.12;102551.41;4944251;28;120097;-71
2022/11/12 02:18:50;;;;;;;48.97;27.40;;;;;;;17.34;67.13;102552.94;4941959;28;120415;-70
2022/11/12 02:21:35;;;;;;;48.15;26.52;;;;;;;17.32;67.42;102558.16;4937337;28;119882;-71
2022/11/12 02:24:19;;;;;;;48.93;26.57;;;;;;;17.33;67.15;102563.25;4937483;28;120155;-71
2022/11/12 02:27:05;;;;;;;50.22;27.13;;;;;;;17.33;67.25;102560.50;4946140;28;119908;-71
2022/11/12 02:29:49;;;;;;;49.25;28.75;;;;;;;17.33;66.90;102565.25;4934712;28;120893;-71
2022/11/12 02:32:33;;;;;;;55.78;29.23;;;;;;;17.30;67.00;102578.03;4947037;28;119546;-71
2022/11/12 02:35:17;;;;;;;51.40;27.45;;;;;;;17.32;67.16;102570.03;4946407;28;120300;-71
2022/11/12 02:38:02;;;;;;;51.55;27.95;;;;;;;17.36;67.05;102567.13;4942393;28;119365;-71
2022/11/12 02:40:46;;;;;;;53.53;29.80;;;;;;;17.37;66.54;102568.69;4941255;28;119851;-71
2022/11/12 02:43:30;;;;;;;56.60;30.92;;;;;;;17.33;66.80;102568.81;4945424;28;119576;-71
2022/11/12 02:46:14;;;;;;;58.63;31.40;;;;;;;17.32;66.74;102564.50;4945188;28;120189;-71
2022/11/12 02:48:58;;;;;;;58.67;29.98;;;;;;;17.32;66.66;102572.03;4951340;28;119829;-70
2022/11/12 02:51:43;;;;;;;55.30;29.02;;;;;;;17.31;67.06;102567.72;4946167;28;120049;-71
2022/11/12 02:54:27;;;;;;;54.77;29.40;;;;;;;17.30;67.00;102574.50;4946078;28;119543;-71
2022/11/12 02:57:11;;;;;;;58.45;30.33;;;;;;;17.32;66.76;102577.59;4945219;28;119774;-71
2022/11/12 02:59:56;;;;;;;52.95;28.08;;;;;;;17.31;67.37;102587.91;4946568;28;121721;-70
2022/11/12 03:02:57;;;;;;;55.40;30.77;;;;;;;17.35;66.73;102583.00;4944534;28;119986;-71
2022/11/12 03:05:43;;;;;;;57.05;30.25;;;;;;;17.36;67.13;102581.78;4944001;28;119966;-71
2022/11/12 03:08:51;;;;;;;54.30;29.45;;;;;;;17.33;66.88;102574.34;4943481;28;120205;-71
2022/11/12 03:11:35;;;;;;;59.60;31.20;;;;;;;17.35;66.69;102565.56;4947452;28;119870;-70
2022/11/12 03:14:19;;;;;;;57.88;30.85;;;;;;;17.34;66.64;102575.13;4940167;28;120820;-71
2022/11/12 03:17:27;;;;;;;57.25;29.25;;;;;;;17.34;66.85;102583.44;4938333;28;120471;-71
2022/11/12 03:20:12;;;;;;;49.03;28.15;;;;;;;17.33;67.01;102593.00;4946882;28;119863;-71
2022/11/12 03:23:05;;;;;;;54.40;29.35;;;;;;;17.34;66.48;102578.69;4934223;28;120489;-71
2022/11/12 03:25:49;;;;;;;56.63;30.38;;;;;;;17.35;66.63;102568.34;4946247;28;120595;-71
2022/11/12 03:28:33;;;;;;;58.15;30.20;;;;;;;17.32;66.75;102572.03;4941754;28;120133;-70
2022/11/12 03:31:18;;;;;;;50.35;28.13;;;;;;;17.33;66.88;102584.69;4936657;28;120117;-70
2022/11/12 03:34:11;;;;;;;56.65;29.30;;;;;;;17.35;66.77;102594.09;4938554;28;120038;-70
2022/11/12 03:36:56;;;;;;;59.70;29.55;;;;;;;17.37;66.52;102580.53;4945025;28;119903;-71
2022/11/12 03:39:40;;;;;;;57.85;30.25;;;;;;;17.38;66.50;102584.88;4942746;28;120102;-71
2022/11/12 03:42:25;;;;;;;55.65;28.95;;;;;;;17.39;66.72;102580.09;4938708;28;120215;-70
2022/11/12 03:45:09;;;;;;;58.17;29.37;;;;;;;17.36;66.54;102581.00;4945191;28;120374;-70
2022/11/12 03:48:13;;;;;;;55.83;30.50;;;;;;;17.37;66.76;102588.09;4940986;28;120597;-71
2022/11/12 03:50:58;;;;;;;58.37;29.90;;;;;;;17.36;66.74;102584.53;4940155;28;119435;-71
2022/11/12 03:53:42;;;;;;;51.80;28.05;;;;;;;17.38;66.66;102597.97;4940330;28;120446;-71
2022/11/12 03:56:47;;;;;;;54.13;29.08;;;;;;;17.35;66.54;102587.78;4928617;28;120048;-71
2022/11/12 03:59:31;;;;;;;51.80;27.75;;;;;;;17.39;66.64;102593.97;4945308;28;120209;-70
2022/11/12 04:02:15;;;;;;;55.20;28.25;;;;;;;17.38;66.83;102584.88;4947684;28;120550;-70
2022/11/12 04:11:15;;;;;;;46.03;26.20;;;;;;;17.40;66.93;102590.72;4939070;28;120137;-70
2022/11/12 04:13:59;;;;;;;51.92;27.48;;;;;;;17.38;66.61;102567.44;4939233;28;120201;-70
2022/11/12 04:22:50;;;;;;;49.47;25.80;;;;;;;17.29;66.81;102592.34;4944315;28;120267;-71
2022/11/12 04:30:14;;;;;;;52.95;26.35;;;;;;;17.24;66.67;102579.03;4938662;28;120632;-70
2022/11/12 04:32:02;;;;;;;47.40;25.85;;;;;;;17.25;67.23;102589.69;4939734;28;119986;-71
2022/11/12 04:34:47;;;;;;;49.90;25.27;;;;;;;17.22;67.17;102590.59;4938967;28;119967;-71
2022/11/12 04:37:43;;;;;;;48.70;25.08;;;;;;;17.26;67.33;102588.47;4939142;28;119849;-71
2022/11/12 04:46:33;;;;;;;45.10;24.97;;;;;;;17.27;66.98;102580.91;4939403;28;119640;-70
2022/11/12 04:49:17;;;;;;;50.38;25.50;;;;;;;17.27;67.09;102581.72;4938894;28;120363;-70
2022/11/12 04:52:05;;;;;;;48.50;25.30;;;;;;;17.23;66.92;102594.91;4938490;28;119968;-70
2022/11/12 04:54:50;;;;;;;47.55;26.27;;;;;;;17.27;66.90;102597.56;4945229;28;119759;-70
2022/11/12 04:57:34;;;;;;;47.90;27.17;;;;;;;17.27;66.93;102595.59;4937787;28;121066;-70
2022/11/12 05:00:19;;;;;;;52.07;28.50;;;;;;;17.29;67.02;102592.34;4940842;28;120214;-70
2022/11/12 05:03:03;;;;;;;51.83;29.13;;;;;;;17.25;66.99;102589.69;4925181;28;122485;-71
2022/11/12 05:05:47;;;;;;;51.88;29.25;;;;;;;17.25;67.15;102597.22;4941120;28;120105;-70
2022/11/12 05:08:31;;;;;;;58.20;31.25;;;;;;;17.29;67.02;102589.59;4934530;28;119975;-71
2022/11/12 05:11:16;;;;;;;55.28;29.67;;;;;;;17.26;66.99;102585.69;4940716;28;119979;-71
2022/11/12 05:14:00;;;;;;;58.90;29.90;;;;;;;17.24;67.04;102593.69;4940488;28;121319;-71
2022/11/12 05:16:44;;;;;;;52.75;30.13;;;;;;;17.25;67.03;102602.78;4925486;28;121948;-70
2022/11/12 05:19:29;;;;;;;54.20;30.63;;;;;;;17.24;67.06;102598.47;4943271;28;120308;-70
2022/11/12 05:22:30;;;;;;;54.25;30.90;;;;;;;17.22;67.27;102598.13;4939068;28;120002;-71
2022/11/12 05:25:14;;;;;;;59.90;32.63;;;;;;;17.23;67.21;102594.13;4940670;28;120698;-70
2022/11/12 05:27:59;;;;;;;61.03;31.53;;;;;;;17.20;67.41;102593.03;4939412;28;119907;-70
2022/11/12 05:30:47;;;;;;;55.35;30.67;;;;;;;17.19;67.15;102613.69;4948685;28;120160;-70
2022/11/12 05:33:31;;;;;;;61.65;33.30;;;;;;;17.16;67.40;102614.59;4935733;28;119597;-70
2022/11/12 05:36:18;;;;;;;60.88;33.80;;;;;;;17.19;67.55;102619.22;4940702;28;120267;-71
2022/11/12 05:39:03;;;;;;;63.30;34.10;;;;;;;17.19;67.34;102611.69;4941461;28;120310;-71
2022/11/12 05:41:48;;;;;;;60.20;32.53;;;;;;;17.18;67.44;102596.28;4947806;28;120728;-70
2022/11/12 05:44:32;;;;;;;66.07;35.92;;;;;;;17.20;67.20;102604.13;4937719;28;120162;-71
2022/11/12 05:47:16;;;;;;;64.22;34.28;;;;;;;17.17;67.12;102610.59;4942131;28;120203;-71
2022/11/12 05:50:01;;;;;;;66.93;35.22;;;;;;;17.18;67.15;102612.13;4941458;28;120291;-71
2022/11/12 05:52:45;;;;;;;64.90;36.80;;;;;;;17.14;67.28;102600.41;4947712;28;119991;-71
2022/11/12 05:55:30;;;;;;;66.47;35.53;;;;;;;17.08;67.20;102608.53;4938799;28;120347;-71
2022/11/12 05:58:33;;;;;;;63.93;35.40;;;;;;;17.10;67.23;102622.72;4944775;28;119648;-71
2022/11/12 06:01:17;;;;;;;66.43;34.15;;;;;;;17.12;67.70;102609.16;4945533;28;119758;-71
2022/11/12 06:04:01;;;;;;;63.63;35.33;;;;;;;17.15;67.43;102608.25;4938082;28;120023;-70
2022/11/12 06:06:45;;;;;;;68.75;34.70;;;;;;;17.12;67.39;102625.81;4948998;28;122172;-71
2022/11/12 06:09:30;;;;;;;63.03;33.92;;;;;;;17.12;67.35;102623.03;4936447;28;120181;-71
2022/11/12 06:12:14;;;;;;;59.88;33.58;;;;;;;17.15;67.31;102626.91;4936308;28;119904;-70
2022/11/12 06:14:58;;;;;;;62.22;33.97;;;;;;;17.12;67.24;102620.25;4943854;28;119997;-70
2022/11/12 06:17:42;;;;;;;60.10;33.23;;;;;;;17.12;67.45;102627.81;4945812;28;121375;-70
2022/11/12 06:20:27;;;;;;;61.90;32.03;;;;;;;17.10;67.38;102633.03;4943885;28;120524;-71
2022/11/12 06:23:11;;;;;;;58.67;33.03;;;;;;;17.10;67.47;102639.34;4944178;28;120353;-71
2022/11/12 06:25:55;;;;;;;59.10;32.58;;;;;;;17.11;67.31;102646.44;4927111;28;122221;-71
2022/11/12 06:28:40;;;;;;;56.17;31.40;;;;;;;17.11;67.26;102646.44;4944438;28;119965;-71
2022/11/12 06:31:24;;;;;;;58.28;31.20;;;;;;;17.13;67.22;102648.75;4943289;28;120301;-71
2022/11/12 06:34:08;;;;;;;57.20;31.37;;;;;;;17.12;67.30;102663.84;4945394;28;120783;-71
2022/11/12 06:36:53;;;;;;;55.88;30.77;;;;;;;17.15;67.20;102671.28;4940875;28;120646;-70
2022/11/12 06:39:37;;;;;;;53.83;31.08;;;;;;;17.12;67.05;102666.63;4943919;28;120229;-71
2022/11/12 06:42:21;;;;;;;52.63;30.17;;;;;;;17.11;67.18;102656.75;4938294;28;120006;-71
2022/11/12 06:45:38;;;;;;;55.95;30.17;;;;;;;17.12;67.09;102672.94;4926351;28;120184;-71
2022/11/12 06:48:23;;;;;;;58.28;30.48;;;;;;;17.11;67.23;102670.63;4930689;28;120221;-69
2022/11/12 06:51:15;;;;;;;56.17;29.40;;;;;;;17.12;66.98;102667.41;4943237;28;120090;-70
2022/11/12 06:54:00;;;;;;;53.67;30.07;;;;;;;17.13;67.13;102680.03;4900561;28;1251827;-71
2022/11/12 06:56:44;;;;;;;52.95;30.23;;;;;;;17.17;67.10;102686.25;4949633;28;119969;-71
2022/11/12 06:59:28;;;;;;;51.65;30.10;;;;;;;17.19;67.02;102681.00;4944946;28;120586;-71
2022/11/12 07:02:13;;;;;;;53.23;30.17;;;;;;;17.21;66.95;102685.34;4946371;28;119553;-70
2022/11/12 07:05:00;;;;;;;52.58;30.00;;;;;;;17.19;67.16;102694.88;4944242;28;119996;-70
2022/11/12 07:07:44;;;;;;;53.03;28.92;;;;;;;17.21;67.33;102693.66;4944764;28;120244;-70
2022/11/12 07:10:29;;;;;;;53.63;29.77;;;;;;;17.25;66.70;102697.09;4941336;28;120232;-70
2022/11/12 07:13:13;;;;;;;48.22;28.13;;;;;;;17.25;66.79;102688.75;4946065;28;119937;-71
2022/11/12 07:15:58;;;;;;;48.45;28.80;;;;;;;17.27;66.91;102697.41;4940309;28;119963;-70
2022/11/12 07:18:46;;;;;;;50.47;28.70;;;;;;;17.30;66.80;102702.09;4945281;28;121411;-70
2022/11/12 07:21:31;;;;;;;49.85;28.58;;;;;;;17.31;66.75;102703.63;4949892;28;119473;-71
2022/11/12 07:24:21;;;;;;;50.07;29.37;;;;;;;17.31;67.09;102709.19;4942375;28;121455;-71
2022/11/12 07:27:05;;;;;;;50.93;28.97;;;;;;;17.33;66.55;102713.06;4937421;28;120275;-70
2022/11/12 07:29:49;;;;;;;53.03;30.20;;;;;;;17.34;66.77;102716.59;4940123;28;120381;-71
2022/11/12 07:32:34;;;;;;;51.90;29.30;;;;;;;17.33;66.80;102717.81;4944533;28;120003;-71
2022/11/12 07:35:18;;;;;;;50.85;29.63;;;;;;;17.39;66.62;102718.81;4944810;28;120486;-71
2022/11/12 07:38:02;;;;;;;52.50;29.13;;;;;;;17.40;66.33;102715.56;4931399;28;120788;-71
2022/11/12 07:40:46;;;;;;;50.60;29.00;;;;;;;17.41;66.74;102714.34;4944804;28;121464;-70
2022/11/12 07:43:32;;;;;;;47.67;28.42;;;;;;;17.44;66.52;102721.78;4933608;28;119944;-70
2022/11/12 07:46:22;;;;;;;46.97;28.35;;;;;;;17.47;66.11;102731.97;4945801;28;119870;-70
2022/11/12 07:49:06;;;;;;;51.33;27.17;;;;;;;17.49;66.44;102732.28;4941827;28;119791;-71
2022/11/12 07:51:50;;;;;;;51.60;29.30;;;;;;;17.52;66.06;102727.09;4943458;28;120173;-71
2022/11/12 07:54:35;;;;;;;54.63;29.90;;;;;;;17.50;65.85;102719.97;4935074;28;119924;-70
2022/11/12 07:57:19;;;;;;;48.37;28.93;;;;;;;17.49;65.93;102725.97;4943861;28;120238;-71
2022/11/12 08:00:04;;;;;;;49.33;29.98;;;;;;;17.50;66.37;102735.84;4943358;28;119877;-71
2022/11/12 08:02:48;;;;;;;51.78;29.85;;;;;;;17.50;66.23;102741.38;4937319;28;120107;-71
2022/11/12 08:05:33;;;;;;;50.15;30.17;;;;;;;17.48;65.96;102727.97;4944355;28;119959;-71
2022/11/12 08:08:17;;;;;;;51.45;30.13;;;;;;;17.50;66.03;102716.41;4948021;28;119929;-70
2022/11/12 08:11:02;;;;;;;51.03;30.27;;;;;;;17.50;65.60;102722.75;4939637;28;119826;-71
2022/11/12 08:14:07;;;;;;;53.60;30.77;;;;;;;17.51;65.79;102731.88;4942215;28;119746;-70
2022/11/12 08:16:51;;;;;;;48.70;30.23;;;;;;;17.52;65.70;102736.19;4943747;28;119796;-71
2022/11/12 08:19:35;;;;;;;50.35;30.63;;;;;;;17.52;65.79;102744.53;4938946;28;119474;-71
2022/11/12 08:22:20;;;;;;;49.73;30.67;;;;;;;17.54;65.97;102746.84;4943489;28;120448;-69
2022/11/12 08:25:04;;;;;;;52.73;31.37;;;;;;;17.55;65.97;102726.97;4935113;28;120122;-71
2022/11/12 08:27:49;;;;;;;48.85;30.60;;;;;;;17.57;65.75;102741.16;4943811;28;120190;-71
2022/11/12 08:30:34;;;;;;;47.35;29.98;;;;;;;17.57;65.65;102738.38;4943552;28;119639;-71
2022/11/12 08:33:19;;;;;;;52.95;30.63;;;;;;;17.59;65.84;102741.50;4947003;28;119360;-70
2022/11/12 08:36:08;;;;;;;47.53;29.60;;;;;;;17.63;65.50;102752.47;4942989;28;119934;-71
2022/11/12 08:38:53;;;;;;;51.17;31.20;;;;;;;17.65;65.54;102748.00;4932793;28;120167;-71
2022/11/12 08:41:37;;;;;;;52.47;31.52;;;;;;;17.63;65.13;102744.91;4937673;28;120092;-70
2022/11/12 08:44:41;;;;;;;50.40;30.52;;;;;;;17.58;65.20;102742.72;4934801;28;119520;-71
2022/11/12 08:47:25;;;;;;;46.15;30.58;;;;;;;17.59;65.38;102755.38;4943610;28;120686;-71
2022/11/12 08:50:09;;;;;;;47.50;30.45;;;;;;;17.57;65.27;102755.03;4941699;28;119985;-71
2022/11/12 08:53:01;;;;;;;46.17;29.80;;;;;;;17.58;65.28;102756.59;4942208;28;120185;-71
2022/11/12 08:55:45;;;;;;;48.60;30.27;;;;;;;17.58;65.26;102759.38;4940321;28;120289;-71
2022/11/12 08:58:29;;;;;;;43.75;30.15;;;;;;;17.58;65.37;102759.38;4944044;28;120225;-70
2022/11/12 09:01:14;;;;;;;48.78;29.35;;;;;;;17.58;65.01;102762.13;4936913;28;120707;-70
2022/11/12 09:03:58;;;;;;;47.13;29.63;;;;;;;17.58;65.08;102778.78;4936758;28;119956;-71
2022/11/12 09:06:50;;;;;;;48.40;30.40;;;;;;;17.57;65.26;102782.00;4929105;28;120039;-71
2022/11/12 09:09:43;;;;;;;45.90;29.67;;;;;;;17.59;65.18;102774.78;4937213;28;120525;-70
2022/11/12 09:12:54;;;;;;;46.78;29.65;;;;;;;17.61;65.46;102772.34;4943101;28;120124;-71
2022/11/12 09:15:39;;;;;;;47.90;29.42;;;;;;;17.61;65.64;102789.00;4938736;28;120245;-71
2022/11/12 09:18:24;;;;;;;47.83;29.50;;;;;;;17.62;65.37;102782.22;4943634;28;119559;-71
2022/11/12 09:21:11;;;;;;;42.97;28.70;;;;;;;17.62;65.03;102787.00;4942423;28;119479;-71
2022/11/12 09:23:55;;;;;;;46.40;30.13;;;;;;;17.64;65.08;102777.00;4938362;28;119865;-71
2022/11/12 09:26:40;;;;;;;46.60;30.17;;;;;;;17.64;65.18;102777.00;4940774;28;119561;-70
2022/11/12 09:29:24;;;;;;;44.63;29.40;;;;;;;17.66;65.25;102782.09;4942191;28;120382;-71
2022/11/12 09:32:08;;;;;;;43.47;29.60;;;;;;;17.66;64.84;102776.53;4942434;28;120283;-71
2022/11/12 09:34:52;;;;;;;45.00;30.55;;;;;;;17.67;64.92;102783.63;4938831;28;120414;-71
2022/11/12 09:37:37;;;;;;;48.83;30.83;;;;;;;17.63;64.91;102785.75;4939799;28;120062;-71
2022/11/12 09:40:45;;;;;;;44.42;30.13;;;;;;;17.66;64.98;102801.50;4944097;28;120299;-71
2022/11/12 09:43:46;;;;;;;45.58;30.65;;;;;;;17.66;65.60;102799.50;4941546;28;119713;-71
2022/11/12 09:46:42;;;;;;;44.47;29.02;;;;;;;17.64;64.76;102798.41;4939352;28;120271;-71
2022/11/12 09:49:37;;;;;;;44.97;29.50;;;;;;;17.66;64.83;102807.06;4946220;28;120331;-70
2022/11/12 09:52:28;;;;;;;42.87;29.27;;;;;;;17.67;64.93;102812.19;4936247;28;121064;-71
2022/11/12 09:55:44;;;;;;;45.33;29.23;;;;;;;17.69;64.79;102812.53;4940061;28;119800;-71
2022/11/12 09:58:29;;;;;;;43.80;29.35;;;;;;;17.69;64.83;102804.19;4934325;28;120244;-71
2022/11/12 10:01:17;;;;;;;43.17;28.98;;;;;;;17.71;64.79;102815.63;4940466;28;119560;-71
2022/11/12 10:04:45;;;;;;;40.28;27.85;;;;;;;17.72;64.40;102811.63;4878014;28;120964;-70
2022/11/12 10:07:54;;;;;;;42.75;28.95;;;;;;;17.72;64.64;102805.28;4879818;28;120365;-71
2022/11/12 10:10:48;;;;;;;39.75;27.73;;;;;;;17.72;65.09;102817.16;4879751;28;119991;-71
2022/11/12 10:13:57;;;;;;;38.67;27.67;;;;;;;17.74;64.69;102819.50;4877853;28;120410;-71
2022/11/12 10:16:53;;;;;;;39.45;27.30;;;;;;;17.78;64.82;102831.28;4881707;28;120822;-70
2022/11/12 10:19:43;;;;;;;41.23;26.80;;;;;;;17.81;64.46;102829.59;4878245;28;119724;-71
2022/11/12 10:22:50;;;;;;;38.03;27.45;;;;;;;17.81;64.17;102822.06;4861540;28;120352;-70
2022/11/12 10:25:36;;;;;;;41.60;27.13;;;;;;;17.76;64.15;102817.06;4877146;28;120034;-70
2022/11/12 10:28:49;;;;;;;39.55;28.30;;;;;;;17.77;64.01;102821.41;4875634;28;120148;-69
2022/11/12 10:31:33;;;;;;;39.95;28.23;;;;;;;17.79;64.30;102824.50;4869342;28;120283;-70
2022/11/12 10:34:22;;;;;;;40.50;28.03;;;;;;;17.81;64.43;102824.06;4861471;28;120183;-70
2022/11/12 10:37:22;;;;;;;39.40;27.60;;;;;;;17.85;64.11;102825.47;4936613;28;120829;-71
2022/11/12 10:40:26;;;;;;;38.73;27.43;;;;;;;17.87;64.49;102822.25;4941208;28;120305;-70
2022/11/12 10:43:14;;;;;;;39.20;27.50;;;;;;;17.86;63.66;102821.47;4935298;28;120944;-71
2022/11/12 10:46:17;;;;;;;40.37;27.90;;;;;;;17.85;64.16;102836.59;4932960;28;120545;-70
2022/11/12 10:49:20;;;;;;;40.70;27.75;;;;;;;17.88;64.18;102832.91;4936443;28;120296;-71
2022/11/12 10:52:23;;;;;;;40.70;28.08;;;;;;;17.86;63.82;102817.91;4935250;28;120095;-71
2022/11/12 10:55:19;;;;;;;42.08;28.20;;;;;;;17.84;64.43;102835.03;4936796;28;120015;-70
2022/11/12 10:58:09;;;;;;;39.65;28.77;;;;;;;17.89;64.68;102844.78;4938070;28;119923;-71
2022/11/12 11:00:57;;;;;;;39.00;27.33;;;;;;;17.89;64.05;102848.34;4935804;28;119645;-70
2022/11/12 11:03:53;;;;;;;38.70;27.10;;;;;;;17.88;63.76;102851.56;4936059;28;121445;-70
2022/11/12 11:06:37;;;;;;;36.00;27.77;;;;;;;17.79;63.77;102836.38;4938161;28;119968;-70
2022/11/12 11:09:24;;;;;;;39.50;28.60;;;;;;;17.81;64.35;102849.81;4936770;28;119972;-69
2022/11/12 11:12:23;;;;;;;41.97;28.10;;;;;;;17.78;64.09;102843.16;4936520;28;120481;-71
2022/11/12 11:15:10;;;;;;;40.10;28.15;;;;;;;17.83;64.25;102841.81;4934421;28;120534;-70
2022/11/12 11:17:54;;;;;;;37.38;27.48;;;;;;;17.81;63.72;102837.94;4946887;28;120615;-71
2022/11/12 11:21:11;;;;;;;40.08;28.92;;;;;;;17.79;64.15;102838.38;4935240;28;120487;-73
2022/11/12 11:24:14;;;;;;;42.75;29.20;;;;;;;17.82;63.83;102831.16;4929123;28;120397;-70
2022/11/12 11:27:10;;;;;;;41.47;28.98;;;;;;;17.79;64.10;102832.84;4939737;28;120216;-70
2022/11/12 11:30:07;;;;;;;41.60;29.63;;;;;;;17.78;64.58;102836.84;4942945;28;120489;-70
2022/11/12 11:33:18;;;;;;;38.97;28.45;;;;;;;17.77;64.42;102824.19;4943085;28;121141;-70
2022/11/12 11:36:23;;;;;;;39.63;29.50;;;;;;;17.78;64.55;102828.50;4935421;28;120192;-71
2022/11/12 11:39:40;;;;;;;37.67;29.65;;;;;;;17.78;64.18;102831.28;4941080;28;120121;-70
2022/11/12 11:42:43;;;;;;;38.97;29.23;;;;;;;17.79;64.54;102839.16;4940663;28;119839;-70
2022/11/12 11:45:39;;;;;;;39.42;28.85;;;;;;;17.83;64.10;102835.47;4939467;28;120582;-71
2022/11/12 11:48:35;;;;;;;40.35;29.25;;;;;;;17.85;64.27;102827.47;4939271;28;120959;-71
2022/11/12 11:51:54;;;;;;;39.53;28.75;;;;;;;17.89;63.91;102834.44;4938979;28;120405;-71
2022/11/12 11:55:06;;;;;;;39.05;29.35;;;;;;;17.92;64.18;102838.31;4942842;28;120647;-69
2022/11/12 11:58:59;;;;;;;37.55;27.33;;;;;;;17.89;64.27;102842.78;4938019;28;120081;-71
2022/11/12 12:02:09;;;;;;;39.17;27.52;;;;;;;17.91;63.98;102842.34;4941839;28;120294;-70
2022/11/12 12:05:23;;;;;;;37.63;27.43;;;;;;;17.91;64.01;102839.56;4940550;28;119599;-69
2022/11/12 12:08:28;;;;;;;39.83;28.23;;;;;;;17.88;64.07;102832.13;4942082;28;119872;-70
2022/11/12 12:11:18;;;;;;;39.80;28.35;;;;;;;17.91;64.03;102822.91;4936984;28;119747;-70
2022/11/12 12:14:17;;;;;;;38.93;29.07;;;;;;;17.91;64.31;102825.66;4945352;28;119865;-71
2022/11/12 12:17:13;;;;;;;38.20;27.37;;;;;;;17.94;64.08;102822.00;4943057;28;120142;-71
2022/11/12 12:20:22;;;;;;;34.45;25.40;;;;;;;17.92;63.44;102818.91;4945410;28;119861;-71
2022/11/12 12:23:34;;;;;;;33.97;26.20;;;;;;;17.92;63.50;102822.44;4932574;28;120915;-71
2022/11/12 12:26:44;;;;;;;36.38;26.23;;;;;;;17.93;63.12;102820.44;4931097;28;120117;-71
2022/11/12 12:29:43;;;;;;;35.03;26.40;;;;;;;17.93;63.30;102820.44;4946648;28;120425;-71
2022/11/12 12:32:37;;;;;;;34.50;26.23;;;;;;;17.93;63.17;102806.56;4944084;28;120000;-70
2022/11/12 12:35:30;;;;;;;37.70;27.25;;;;;;;17.92;63.12;102813.34;4944605;28;119849;-70
2022/11/12 12:38:32;;;;;;;36.90;27.25;;;;;;;17.89;63.67;102817.78;4930261;28;119888;-70
2022/11/12 12:41:17;;;;;;;38.75;27.80;;;;;;;17.83;63.15;102816.03;4945499;28;119434;-70
2022/11/12 12:44:03;;;;;;;37.13;27.57;;;;;;;17.73;63.31;102818.72;4944994;28;119583;-70
2022/11/12 12:46:55;;;;;;;36.63;28.37;;;;;;;17.70;63.45;102825.19;4935322;28;120238;-70
2022/11/12 12:49:41;;;;;;;39.47;29.20;;;;;;;17.64;63.73;102829.72;4941867;28;121091;-71
2022/11/12 12:52:25;;;;;;;38.70;27.85;;;;;;;17.62;63.62;102834.16;4945597;28;120307;-71
2022/11/12 12:55:34;;;;;;;38.43;28.40;;;;;;;17.57;63.87;102829.97;4945322;28;120584;-71
2022/11/12 12:58:44;;;;;;;39.17;29.27;;;;;;;17.52;64.02;102829.75;4942222;28;119994;-71
2022/11/12 13:01:34;;;;;;;39.15;28.90;;;;;;;17.38;64.11;102826.22;4943950;28;119960;-70
2022/11/12 13:04:53;;;;;;;43.65;29.50;;;;;;;17.44;64.53;102840.31;4943278;28;120136;-71
2022/11/12 13:07:48;;;;;;;41.50;29.00;;;;;;;17.45;64.80;102834.31;4944329;28;119758;-70
2022/11/12 13:10:36;;;;;;;40.50;29.33;;;;;;;17.48;64.91;102844.50;4941857;28;119727;-71